Terminal Aerodrome Forecast
Issued by NWS

Home | Current Version | Previous Version | Text Only | Print | Product List | Glossary On
Versions: 1 2 3 4 5 6 7 8 9 10 11 12 13 14 15 16 17 18 19 20 21 22 23 24 25 26 27 28 29 30 31 32 33 34 35 36 37 38 39 40 41 42 43 44 45 46 47 48 49 50
371
FTUS41 KOKX 161120
TAFHPN
TAF
KHPN 161120Z 1612/1712 29006KT P6SM BKN100
     FM161700 27005KT P6SM OVC070
     FM161800 VRB03KT P6SM OVC045
     FM162300 VRB03KT P6SM VCSH OVC035
      TEMPO 1700/1702 5SM -SN OVC030
     FM170200 VRB03KT 2SM -SN OVC035
     FM170400 06003KT 1SM -SNPL OVC025
     FM170600 05003KT 2SM -FZRAPLSN OVC007
     FM170900 05006KT 3SM -RA OVC007
     AMD NOT SKED=

USA.gov is the U.S. government's official web portal to all federal, state and local government web resources and services.